sensor_id;sensor_type;location;lat;lon;timestamp;pressure;altitude;pressure_sealevel;temperature;humidity
72961;BME280;61141;46.204;19.774;2022-11-23T00:01:23;98729.06;;;7.18;100.00
72961;BME280;61141;46.204;19.774;2022-11-23T00:04:26;98729.81;;;7.01;100.00
72961;BME280;61141;46.204;19.774;2022-11-23T00:07:28;98720.91;;;7.04;100.00
72961;BME280;61141;46.204;19.774;2022-11-23T00:10:31;98730.63;;;7.12;100.00
72961;BME280;61141;46.204;19.774;2022-11-23T00:13:34;98726.00;;;7.23;100.00
72961;BME280;61141;46.204;19.774;2022-11-23T00:16:37;98716.62;;;7.17;100.00
72961;BME280;61141;46.204;19.774;2022-11-23T00:19:40;98719.72;;;7.16;100.00
72961;BME280;61141;46.204;19.774;2022-11-23T00:22:43;98722.44;;;6.98;100.00
72961;BME280;61141;46.204;19.774;2022-11-23T00:25:46;98727.84;;;6.94;100.00
72961;BME280;61141;46.204;19.774;2022-11-23T00:28:49;98725.91;;;6.95;100.00
72961;BME280;61141;46.204;19.774;2022-11-23T00:31:51;98726.69;;;6.95;100.00
72961;BME280;61141;46.204;19.774;2022-11-23T00:34:54;98737.56;;;6.99;100.00
72961;BME280;61141;46.204;19.774;2022-11-23T00:37:57;98729.06;;;7.04;100.00
72961;BME280;61141;46.204;19.774;2022-11-23T00:41:03;98724.38;;;7.04;100.00
72961;BME280;61141;46.204;19.774;2022-11-23T00:44:06;98730.16;;;6.82;100.00
72961;BME280;61141;46.204;19.774;2022-11-23T00:47:09;98730.53;;;6.84;100.00
72961;BME280;61141;46.204;19.774;2022-11-23T00:50:12;98722.81;;;7.07;100.00
72961;BME280;61141;46.204;19.774;2022-11-23T00:53:16;98720.81;;;6.79;100.00
72961;BME280;61141;46.204;19.774;2022-11-23T00:56:20;98715.00;;;6.84;100.00
72961;BME280;61141;46.204;19.774;2022-11-23T00:59:23;98712.63;;;6.72;100.00
72961;BME280;61141;46.204;19.774;2022-11-23T01:02:28;98719.59;;;6.63;100.00
72961;BME280;61141;46.204;19.774;2022-11-23T01:05:35;98715.72;;;6.74;100.00
72961;BME280;61141;46.204;19.774;2022-11-23T01:08:38;98727.03;;;6.83;100.00
72961;BME280;61141;46.204;19.774;2022-11-23T01:11:41;98715.81;;;7.02;100.00
72961;BME280;61141;46.204;19.774;2022-11-23T01:14:44;98729.06;;;7.04;100.00
72961;BME280;61141;46.204;19.774;2022-11-23T01:17:47;98717.34;;;6.96;100.00
72961;BME280;61141;46.204;19.774;2022-11-23T01:20:50;98709.53;;;6.74;100.00
72961;BME280;61141;46.204;19.774;2022-11-23T01:23:53;98710.69;;;6.80;100.00
72961;BME280;61141;46.204;19.774;2022-11-23T01:26:56;98713.44;;;6.83;100.00
72961;BME280;61141;46.204;19.774;2022-11-23T01:30:01;98709.59;;;6.95;100.00
72961;BME280;61141;46.204;19.774;2022-11-23T01:33:05;98710.00;;;7.11;100.00
72961;BME280;61141;46.204;19.774;2022-11-23T01:36:19;98719.72;;;7.08;100.00
72961;BME280;61141;46.204;19.774;2022-11-23T01:39:21;98713.44;;;6.87;100.00
72961;BME280;61141;46.204;19.774;2022-11-23T01:42:59;98718.53;;;6.99;100.00
72961;BME280;61141;46.204;19.774;2022-11-23T01:46:01;98729.06;;;7.04;100.00
72961;BME280;61141;46.204;19.774;2022-11-23T01:49:05;98726.34;;;7.04;100.00
72961;BME280;61141;46.204;19.774;2022-11-23T01:52:12;98725.91;;;7.02;100.00
72961;BME280;61141;46.204;19.774;2022-11-23T01:55:16;98717.75;;;6.95;100.00
72961;BME280;61141;46.204;19.774;2022-11-23T01:58:22;98731.00;;;7.10;100.00
72961;BME280;61141;46.204;19.774;2022-11-23T02:01:26;98730.59;;;7.05;100.00
72961;BME280;61141;46.204;19.774;2022-11-23T02:04:33;98722.84;;;7.03;100.00
72961;BME280;61141;46.204;19.774;2022-11-23T02:07:38;98725.97;;;7.27;100.00
72961;BME280;61141;46.204;19.774;2022-11-23T02:10:42;98723.62;;;7.18;100.00
72961;BME280;61141;46.204;19.774;2022-11-23T02:13:46;98732.19;;;7.13;100.00
72961;BME280;61141;46.204;19.774;2022-11-23T02:16:50;98730.25;;;7.17;100.00
72961;BME280;61141;46.204;19.774;2022-11-23T02:20:09;98733.34;;;7.12;100.00
72961;BME280;61141;46.204;19.774;2022-11-23T02:23:36;98722.09;;;7.17;100.00
72961;BME280;61141;46.204;19.774;2022-11-23T02:26:44;98725.59;;;7.25;100.00
72961;BME280;61141;46.204;19.774;2022-11-23T02:29:49;98731.41;;;7.16;100.00
72961;BME280;61141;46.204;19.774;2022-11-23T02:32:55;98722.06;;;7.10;100.00
72961;BME280;61141;46.204;19.774;2022-11-23T02:36:00;98723.59;;;7.07;100.00
72961;BME280;61141;46.204;19.774;2022-11-23T02:39:09;98729.88;;;7.15;100.00
72961;BME280;61141;46.204;19.774;2022-11-23T02:42:13;98736.88;;;7.23;100.00
72961;BME280;61141;46.204;19.774;2022-11-23T02:48:28;98746.59;;;7.21;100.00
72961;BME280;61141;46.204;19.774;2022-11-23T02:51:31;98737.63;;;7.24;100.00
72961;BME280;61141;46.204;19.774;2022-11-23T02:54:37;98748.53;;;7.20;100.00
72961;BME280;61141;46.204;19.774;2022-11-23T02:57:40;98755.16;;;7.19;100.00
72961;BME280;61141;46.204;19.774;2022-11-23T03:00:44;98759.06;;;7.25;100.00
72961;BME280;61141;46.204;19.774;2022-11-23T03:03:47;98762.53;;;7.22;100.00
72961;BME280;61141;46.204;19.774;2022-11-23T03:06:49;98758.28;;;7.28;100.00
72961;BME280;61141;46.204;19.774;2022-11-23T03:09:52;98753.19;;;7.16;100.00
72961;BME280;61141;46.204;19.774;2022-11-23T03:12:55;98753.56;;;7.04;100.00
72961;BME280;61141;46.204;19.774;2022-11-23T03:15:59;98755.50;;;7.10;100.00
72961;BME280;61141;46.204;19.774;2022-11-23T03:19:02;98755.50;;;7.07;100.00
72961;BME280;61141;46.204;19.774;2022-11-23T03:22:06;98760.22;;;7.17;100.00
72961;BME280;61141;46.204;19.774;2022-11-23T03:25:09;98766.03;;;7.12;100.00
72961;BME280;61141;46.204;19.774;2022-11-23T03:28:12;98764.47;;;7.18;100.00
72961;BME280;61141;46.204;19.774;2022-11-23T03:31:15;98755.53;;;7.25;100.00
72961;BME280;61141;46.204;19.774;2022-11-23T03:34:18;98755.53;;;7.25;100.00
72961;BME280;61141;46.204;19.774;2022-11-23T03:37:21;98760.16;;;7.10;100.00
72961;BME280;61141;46.204;19.774;2022-11-23T03:40:24;98766.37;;;7.07;100.00
72961;BME280;61141;46.204;19.774;2022-11-23T03:43:32;98767.56;;;7.09;100.00
72961;BME280;61141;46.204;19.774;2022-11-23T03:46:35;98762.06;;;6.99;100.00
72961;BME280;61141;46.204;19.774;2022-11-23T03:49:37;98769.47;;;7.02;100.00
72961;BME280;61141;46.204;19.774;2022-11-23T03:52:42;98772.63;;;7.11;100.00
72961;BME280;61141;46.204;19.774;2022-11-23T03:55:46;98771.84;;;7.03;100.00
72961;BME280;61141;46.204;19.774;2022-11-23T03:58:49;98766.41;;;7.10;100.00
72961;BME280;61141;46.204;19.774;2022-11-23T04:01:53;98768.34;;;7.10;100.00
72961;BME280;61141;46.204;19.774;2022-11-23T04:04:56;98771.03;;;7.03;100.00
72961;BME280;61141;46.204;19.774;2022-11-23T04:07:59;98770.31;;;7.09;100.00
72961;BME280;61141;46.204;19.774;2022-11-23T04:11:02;98763.66;;;7.00;100.00
72961;BME280;61141;46.204;19.774;2022-11-23T04:14:05;98772.56;;;6.97;100.00
72961;BME280;61141;46.204;19.774;2022-11-23T04:17:08;98770.25;;;7.02;100.00
72961;BME280;61141;46.204;19.774;2022-11-23T04:20:12;98772.19;;;7.02;100.00
72961;BME280;61141;46.204;19.774;2022-11-23T04:23:16;98773.41;;;7.08;100.00
72961;BME280;61141;46.204;19.774;2022-11-23T04:26:18;98779.59;;;7.01;100.00
72961;BME280;61141;46.204;19.774;2022-11-23T04:29:21;98769.53;;;7.16;100.00
72961;BME280;61141;46.204;19.774;2022-11-23T04:32:25;98779.66;;;7.19;100.00
72961;BME280;61141;46.204;19.774;2022-11-23T04:35:28;98780.78;;;7.11;100.00
72961;BME280;61141;46.204;19.774;2022-11-23T04:38:31;98773.78;;;7.10;100.00
72961;BME280;61141;46.204;19.774;2022-11-23T04:41:34;98780.41;;;7.12;100.00
72961;BME280;61141;46.204;19.774;2022-11-23T04:44:37;98778.09;;;7.15;100.00
72961;BME280;61141;46.204;19.774;2022-11-23T04:47:41;98776.94;;;7.19;100.00
72961;BME280;61141;46.204;19.774;2022-11-23T04:50:44;98781.59;;;7.15;100.00
72961;BME280;61141;46.204;19.774;2022-11-23T04:53:50;98775.00;;;7.20;100.00
72961;BME280;61141;46.204;19.774;2022-11-23T04:56:53;98780.44;;;7.23;100.00
72961;BME280;61141;46.204;19.774;2022-11-23T04:59:57;98777.34;;;7.25;100.00
72961;BME280;61141;46.204;19.774;2022-11-23T05:03:00;98779.28;;;7.24;100.00
72961;BME280;61141;46.204;19.774;2022-11-23T05:06:04;98785.50;;;7.25;100.00
72961;BME280;61141;46.204;19.774;2022-11-23T05:09:10;98788.63;;;7.30;100.00
72961;BME280;61141;46.204;19.774;2022-11-23T05:12:14;98794.81;;;7.24;100.00
72961;BME280;61141;46.204;19.774;2022-11-23T05:15:16;98793.25;;;7.19;100.00
72961;BME280;61141;46.204;19.774;2022-11-23T05:18:20;98794.44;;;7.22;100.00
72961;BME280;61141;46.204;19.774;2022-11-23T05:21:23;98799.13;;;7.25;100.00
72961;BME280;61141;46.204;19.774;2022-11-23T05:24:27;98800.25;;;7.17;100.00
72961;BME280;61141;46.204;19.774;2022-11-23T05:27:31;98800.62;;;7.12;100.00
72961;BME280;61141;46.204;19.774;2022-11-23T05:30:34;98798.28;;;7.06;100.00
72961;BME280;61141;46.204;19.774;2022-11-23T05:33:36;98799.53;;;7.23;100.00
72961;BME280;61141;46.204;19.774;2022-11-23T05:36:40;98806.91;;;7.26;100.00
72961;BME280;61141;46.204;19.774;2022-11-23T05:39:44;98802.25;;;7.23;100.00
72961;BME280;61141;46.204;19.774;2022-11-23T05:42:47;98801.44;;;7.19;100.00
72961;BME280;61141;46.204;19.774;2022-11-23T05:45:51;98801.84;;;7.25;100.00
72961;BME280;61141;46.204;19.774;2022-11-23T05:48:55;98802.19;;;7.09;100.00
72961;BME280;61141;46.204;19.774;2022-11-23T05:51:58;98810.75;;;7.18;100.00
72961;BME280;61141;46.204;19.774;2022-11-23T05:55:02;98807.69;;;7.23;100.00
72961;BME280;61141;46.204;19.774;2022-11-23T05:58:05;98806.13;;;7.22;100.00
72961;BME280;61141;46.204;19.774;2022-11-23T06:01:09;98809.97;;;7.14;100.00
72961;BME280;61141;46.204;19.774;2022-11-23T06:04:15;98814.66;;;7.24;100.00
72961;BME280;61141;46.204;19.774;2022-11-23T06:07:18;98808.44;;;7.20;100.00
72961;BME280;61141;46.204;19.774;2022-11-23T06:10:23;98813.13;;;7.23;100.00
72961;BME280;61141;46.204;19.774;2022-11-23T06:13:26;98825.19;;;7.29;100.00
72961;BME280;61141;46.204;19.774;2022-11-23T06:16:29;98834.16;;;7.33;100.00
72961;BME280;61141;46.204;19.774;2022-11-23T06:19:33;98842.75;;;7.46;100.00
72961;BME280;61141;46.204;19.774;2022-11-23T06:22:36;98844.34;;;7.50;100.00
72961;BME280;61141;46.204;19.774;2022-11-23T06:25:39;98840.44;;;7.55;100.00
72961;BME280;61141;46.204;19.774;2022-11-23T06:28:43;98836.94;;;7.54;100.00
72961;BME280;61141;46.204;19.774;2022-11-23T06:31:48;98839.66;;;7.47;100.00
72961;BME280;61141;46.204;19.774;2022-11-23T06:34:51;98843.53;;;7.46;100.00
72961;BME280;61141;46.204;19.774;2022-11-23T06:38:01;98844.38;;;7.61;100.00
72961;BME280;61141;46.204;19.774;2022-11-23T06:41:04;98848.25;;;7.70;100.00
72961;BME280;61141;46.204;19.774;2022-11-23T06:44:07;98849.47;;;7.80;100.00
72961;BME280;61141;46.204;19.774;2022-11-23T06:47:11;98841.66;;;7.72;100.00
72961;BME280;61141;46.204;19.774;2022-11-23T06:50:19;98840.50;;;7.80;100.00
72961;BME280;61141;46.204;19.774;2022-11-23T06:53:23;98844.41;;;7.89;100.00
72961;BME280;61141;46.204;19.774;2022-11-23T06:56:25;98843.25;;;8.01;100.00
72961;BME280;61141;46.204;19.774;2022-11-23T06:59:28;98840.53;;;8.11;99.73
72961;BME280;61141;46.204;19.774;2022-11-23T07:02:32;98839.34;;;8.02;99.49
72961;BME280;61141;46.204;19.774;2022-11-23T07:05:37;98840.91;;;7.99;99.54
72961;BME280;61141;46.204;19.774;2022-11-23T07:08:40;98832.75;;;7.92;99.29
72961;BME280;61141;46.204;19.774;2022-11-23T07:11:47;98846.72;;;7.73;100.00
72961;BME280;61141;46.204;19.774;2022-11-23T07:14:50;98855.28;;;7.75;100.00
72961;BME280;61141;46.204;19.774;2022-11-23T07:17:55;98864.69;;;7.95;99.67
72961;BME280;61141;46.204;19.774;2022-11-23T07:20:58;98865.84;;;8.01;99.47
72961;BME280;61141;46.204;19.774;2022-11-23T07:24:01;98857.66;;;8.05;99.02
72961;BME280;61141;46.204;19.774;2022-11-23T07:27:04;98869.75;;;7.90;99.88
72961;BME280;61141;46.204;19.774;2022-11-23T07:30:08;98860.78;;;7.89;100.00
72961;BME280;61141;46.204;19.774;2022-11-23T07:33:11;98863.91;;;8.09;99.42
72961;BME280;61141;46.204;19.774;2022-11-23T07:36:15;98852.97;;;8.02;99.17
72961;BME280;61141;46.204;19.774;2022-11-23T07:39:18;98859.63;;;8.08;98.72
72961;BME280;61141;46.204;19.774;2022-11-23T07:42:22;98865.47;;;8.13;98.75
72961;BME280;61141;46.204;19.774;2022-11-23T07:45:44;98864.66;;;8.09;99.22
72961;BME280;61141;46.204;19.774;2022-11-23T07:48:49;98865.87;;;8.30;98.62
72961;BME280;61141;46.204;19.774;2022-11-23T07:51:52;98857.69;;;8.22;98.85
72961;BME280;61141;46.204;19.774;2022-11-23T07:54:55;98859.63;;;8.43;97.44
72961;BME280;61141;46.204;19.774;2022-11-23T07:57:58;98858.84;;;8.57;96.90
72961;BME280;61141;46.204;19.774;2022-11-23T08:01:02;98868.59;;;8.54;96.32
72961;BME280;61141;46.204;19.774;2022-11-23T08:04:05;98870.16;;;8.69;95.52
72961;BME280;61141;46.204;19.774;2022-11-23T08:07:08;98870.16;;;8.62;96.18
72961;BME280;61141;46.204;19.774;2022-11-23T08:10:11;98867.06;;;8.53;96.17
72961;BME280;61141;46.204;19.774;2022-11-23T08:13:14;98856.50;;;8.62;96.05
72961;BME280;61141;46.204;19.774;2022-11-23T08:16:17;98865.44;;;8.77;95.65
72961;BME280;61141;46.204;19.774;2022-11-23T08:19:21;98870.12;;;8.83;95.85
72961;BME280;61141;46.204;19.774;2022-11-23T08:22:25;98865.03;;;8.85;94.98
72961;BME280;61141;46.204;19.774;2022-11-23T08:25:28;98858.78;;;8.89;94.78
72961;BME280;61141;46.204;19.774;2022-11-23T08:28:31;98864.56;;;9.19;94.27
72961;BME280;61141;46.204;19.774;2022-11-23T08:31:34;98859.50;;;9.03;93.63
72961;BME280;61141;46.204;19.774;2022-11-23T08:34:37;98858.37;;;8.94;94.48
72961;BME280;61141;46.204;19.774;2022-11-23T08:37:39;98860.31;;;9.04;94.39
72961;BME280;61141;46.204;19.774;2022-11-23T08:40:42;98863.03;;;9.11;94.29
72961;BME280;61141;46.204;19.774;2022-11-23T08:43:48;98871.09;;;9.42;92.36
72961;BME280;61141;46.204;19.774;2022-11-23T08:46:51;98863.69;;;9.39;92.97
72961;BME280;61141;46.204;19.774;2022-11-23T08:49:54;98865.72;;;9.21;93.32
72961;BME280;61141;46.204;19.774;2022-11-23T08:52:58;98870.72;;;9.40;93.20
72961;BME280;61141;46.204;19.774;2022-11-23T08:56:05;98861.66;;;9.54;92.22
72961;BME280;61141;46.204;19.774;2022-11-23T08:59:08;98869.44;;;9.56;91.65
72961;BME280;61141;46.204;19.774;2022-11-23T09:02:12;98865.53;;;9.60;92.33
72961;BME280;61141;46.204;19.774;2022-11-23T09:05:15;98867.41;;;9.77;91.78
72961;BME280;61141;46.204;19.774;2022-11-23T09:08:18;98864.97;;;9.86;92.32
72961;BME280;61141;46.204;19.774;2022-11-23T09:11:21;98882.94;;;9.91;91.42
72961;BME280;61141;46.204;19.774;2022-11-23T09:14:25;98875.84;;;9.97;92.07
72961;BME280;61141;46.204;19.774;2022-11-23T09:17:31;98889.06;;;10.09;90.79
72961;BME280;61141;46.204;19.774;2022-11-23T09:20:35;98888.28;;;10.09;91.29
72961;BME280;61141;46.204;19.774;2022-11-23T09:23:38;98897.00;;;9.93;92.44
72961;BME280;61141;46.204;19.774;2022-11-23T09:26:40;98887.53;;;10.04;89.56
72961;BME280;61141;46.204;19.774;2022-11-23T09:29:44;98892.25;;;10.04;90.12
72961;BME280;61141;46.204;19.774;2022-11-23T09:32:46;98890.38;;;9.90;91.21
72961;BME280;61141;46.204;19.774;2022-11-23T09:35:59;98891.13;;;9.94;91.01
72961;BME280;61141;46.204;19.774;2022-11-23T09:39:02;98885.97;;;10.07;91.27
72961;BME280;61141;46.204;19.774;2022-11-23T09:42:22;98890.66;;;10.07;91.57
72961;BME280;61141;46.204;19.774;2022-11-23T09:52:18;98881.63;;;10.61;90.20
72961;BME280;61141;46.204;19.774;2022-11-23T09:55:35;98890.28;;;10.97;88.95
72961;BME280;61141;46.204;19.774;2022-11-23T09:58:39;98894.19;;;10.99;88.46
72961;BME280;61141;46.204;19.774;2022-11-23T10:01:42;98887.66;;;10.86;88.36
72961;BME280;61141;46.204;19.774;2022-11-23T10:04:45;98888.31;;;11.01;88.28
72961;BME280;61141;46.204;19.774;2022-11-23T10:08:09;98890.56;;;11.09;87.12
72961;BME280;61141;46.204;19.774;2022-11-23T10:11:39;98893.81;;;10.97;87.62
72961;BME280;61141;46.204;19.774;2022-11-23T10:18:28;98887.06;;;11.05;89.03
72961;BME280;61141;46.204;19.774;2022-11-23T10:24:42;98890.47;;;11.16;87.52
72961;BME280;61141;46.204;19.774;2022-11-23T10:27:48;98891.22;;;11.20;87.27
72961;BME280;61141;46.204;19.774;2022-11-23T10:30:54;98889.59;;;11.27;86.62
72961;BME280;61141;46.204;19.774;2022-11-23T10:34:10;98896.16;;;11.33;86.28
72961;BME280;61141;46.204;19.774;2022-11-23T10:37:15;98900.44;;;11.37;85.85
72961;BME280;61141;46.204;19.774;2022-11-23T10:40:25;98898.97;;;11.29;86.36
72961;BME280;61141;46.204;19.774;2022-11-23T10:43:48;98893.66;;;11.11;87.64
72961;BME280;61141;46.204;19.774;2022-11-23T10:46:52;98900.09;;;10.98;88.11
72961;BME280;61141;46.204;19.774;2022-11-23T10:49:57;98890.28;;;10.97;88.75
72961;BME280;61141;46.204;19.774;2022-11-23T10:53:18;98889.19;;;11.28;87.53
72961;BME280;61141;46.204;19.774;2022-11-23T10:56:24;98891.16;;;11.58;86.50
72961;BME280;61141;46.204;19.774;2022-11-23T10:59:31;98895.94;;;11.54;86.89
72961;BME280;61141;46.204;19.774;2022-11-23T11:02:40;98894.47;;;11.46;86.19
72961;BME280;61141;46.204;19.774;2022-11-23T11:05:49;98890.34;;;11.27;86.65
72961;BME280;61141;46.204;19.774;2022-11-23T11:09:19;98888.06;;;11.22;86.09
72961;BME280;61141;46.204;19.774;2022-11-23T11:12:23;98897.97;;;11.12;88.23
72961;BME280;61141;46.204;19.774;2022-11-23T11:15:26;98897.41;;;11.28;87.81
72961;BME280;61141;46.204;19.774;2022-11-23T11:18:35;98894.47;;;11.46;87.24
72961;BME280;61141;46.204;19.774;2022-11-23T11:21:42;98910.00;;;11.22;88.30
72961;BME280;61141;46.204;19.774;2022-11-23T11:24:45;98911.81;;;10.98;89.65
72961;BME280;61141;46.204;19.774;2022-11-23T11:27:53;98907.16;;;10.95;88.69
72961;BME280;61141;46.204;19.774;2022-11-23T11:37:59;98913.56;;;10.78;90.33
72961;BME280;61141;46.204;19.774;2022-11-23T11:41:09;98920.50;;;10.93;89.82
72961;BME280;61141;46.204;19.774;2022-11-23T11:44:21;98914.28;;;10.86;90.37
72961;BME280;61141;46.204;19.774;2022-11-23T11:47:32;98912.16;;;11.04;90.24
72961;BME280;61141;46.204;19.774;2022-11-23T11:50:41;98908.03;;;10.85;90.11
72961;BME280;61141;46.204;19.774;2022-11-23T11:57:33;98909.47;;;10.56;91.02
72961;BME280;61141;46.204;19.774;2022-11-23T12:00:38;98906.19;;;10.72;90.93
72961;BME280;61141;46.204;19.774;2022-11-23T12:03:51;98905.84;;;10.66;92.42
72961;BME280;61141;46.204;19.774;2022-11-23T12:10:47;98914.50;;;10.61;92.36
72961;BME280;61141;46.204;19.774;2022-11-23T12:13:57;98922.31;;;10.63;92.53
72961;BME280;61141;46.204;19.774;2022-11-23T12:17:05;98920.41;;;10.59;92.55
72961;BME280;61141;46.204;19.774;2022-11-23T12:30:28;98931.25;;;10.70;91.50
72961;BME280;61141;46.204;19.774;2022-11-23T12:33:51;98922.22;;;10.73;91.68
72961;BME280;61141;46.204;19.774;2022-11-23T12:40:11;98932.81;;;10.71;93.08
72961;BME280;61141;46.204;19.774;2022-11-23T12:43:27;98942.66;;;10.65;92.83
72961;BME280;61141;46.204;19.774;2022-11-23T12:47:09;98945.38;;;10.65;92.70
72961;BME280;61141;46.204;19.774;2022-11-23T13:00:16;98947.53;;;10.36;93.17
72961;BME280;61141;46.204;19.774;2022-11-23T13:21:48;98962.78;;;10.41;93.64
72961;BME280;61141;46.204;19.774;2022-11-23T13:28:28;98978.97;;;10.11;94.66
72961;BME280;61141;46.204;19.774;2022-11-23T13:31:32;98979.03;;;9.96;94.01
72961;BME280;61141;46.204;19.774;2022-11-23T13:34:45;98975.22;;;9.80;94.20
72961;BME280;61141;46.204;19.774;2022-11-23T13:40:57;98988.06;;;9.90;94.83
72961;BME280;61141;46.204;19.774;2022-11-23T13:50:18;99000.28;;;9.50;94.67
72961;BME280;61141;46.204;19.774;2022-11-23T13:53:33;98992.50;;;9.52;95.48
72961;BME280;61141;46.204;19.774;2022-11-23T13:56:42;99008.06;;;9.62;95.24
72961;BME280;61141;46.204;19.774;2022-11-23T13:59:45;99005.66;;;9.78;95.16
72961;BME280;61141;46.204;19.774;2022-11-23T14:02:48;99007.28;;;9.62;94.89
72961;BME280;61141;46.204;19.774;2022-11-23T14:05:54;99016.69;;;9.54;95.20
72961;BME280;61141;46.204;19.774;2022-11-23T14:15:35;99033.13;;;9.32;96.48
72961;BME280;61141;46.204;19.774;2022-11-23T14:18:54;99039.41;;;9.19;96.58
72961;BME280;61141;46.204;19.774;2022-11-23T14:29:26;99048.37;;;8.91;97.37
72961;BME280;61141;46.204;19.774;2022-11-23T14:32:58;99047.22;;;8.89;97.93
72961;BME280;61141;46.204;19.774;2022-11-23T14:36:17;99050.34;;;9.05;97.82
72961;BME280;61141;46.204;19.774;2022-11-23T14:39:56;99060.47;;;8.83;98.88
72961;BME280;61141;46.204;19.774;2022-11-23T14:43:01;99054.97;;;8.65;98.84
72961;BME280;61141;46.204;19.774;2022-11-23T14:46:14;99057.31;;;8.53;99.34
72961;BME280;61141;46.204;19.774;2022-11-23T14:49:17;99072.13;;;8.62;100.00
72961;BME280;61141;46.204;19.774;2022-11-23T14:52:29;99071.31;;;8.44;100.00
72961;BME280;61141;46.204;19.774;2022-11-23T14:55:33;99080.69;;;8.47;100.00
72961;BME280;61141;46.204;19.774;2022-11-23T14:58:36;99081.84;;;8.42;100.00
72961;BME280;61141;46.204;19.774;2022-11-23T15:01:44;99091.19;;;8.41;100.00
72961;BME280;61141;46.204;19.774;2022-11-23T15:11:24;99101.66;;;8.32;100.00
72961;BME280;61141;46.204;19.774;2022-11-23T15:14:28;99101.59;;;8.14;100.00
72961;BME280;61141;46.204;19.774;2022-11-23T15:17:31;99106.66;;;8.16;100.00
72961;BME280;61141;46.204;19.774;2022-11-23T15:20:42;99109.41;;;8.19;100.00
72961;BME280;61141;46.204;19.774;2022-11-23T15:26:50;99109.41;;;8.19;100.00
72961;BME280;61141;46.204;19.774;2022-11-23T15:29:57;99109.37;;;8.23;100.00
72961;BME280;61141;46.204;19.774;2022-11-23T15:33:02;99109.41;;;8.26;100.00
72961;BME280;61141;46.204;19.774;2022-11-23T15:36:07;99095.78;;;8.26;100.00
72961;BME280;61141;46.204;19.774;2022-11-23T15:39:20;99109.34;;;8.09;100.00
72961;BME280;61141;46.204;19.774;2022-11-23T15:42:26;99112.72;;;7.88;100.00
72961;BME280;61141;46.204;19.774;2022-11-23T15:46:04;99102.63;;;7.89;100.00
72961;BME280;61141;46.204;19.774;2022-11-23T15:49:14;99108.47;;;7.91;100.00
72961;BME280;61141;46.204;19.774;2022-11-23T15:52:18;99103.06;;;7.98;100.00
72961;BME280;61141;46.204;19.774;2022-11-23T15:55:21;99104.19;;;7.93;100.00
72961;BME280;61141;46.204;19.774;2022-11-23T15:58:26;99120.97;;;7.99;100.00
72961;BME280;61141;46.204;19.774;2022-11-23T16:01:30;99110.69;;;7.67;100.00
72961;BME280;61141;46.204;19.774;2022-11-23T16:04:39;99127.91;;;7.86;100.00
72961;BME280;61141;46.204;19.774;2022-11-23T16:07:59;99127.50;;;7.80;100.00
72961;BME280;61141;46.204;19.774;2022-11-23T16:11:02;99125.22;;;7.93;100.00
72961;BME280;61141;46.204;19.774;2022-11-23T16:14:15;99130.66;;;7.93;100.00
72961;BME280;61141;46.204;19.774;2022-11-23T16:17:26;99136.12;;;7.93;100.00
72961;BME280;61141;46.204;19.774;2022-11-23T16:20:29;99131.84;;;7.92;100.00
72961;BME280;61141;46.204;19.774;2022-11-23T16:23:40;99136.12;;;7.93;100.00
72961;BME280;61141;46.204;19.774;2022-11-23T16:26:45;99144.31;;;7.93;100.00
72961;BME280;61141;46.204;19.774;2022-11-23T16:29:49;99136.47;;;7.88;100.00
72961;BME280;61141;46.204;19.774;2022-11-23T16:32:52;99139.53;;;7.76;100.00
72961;BME280;61141;46.204;19.774;2022-11-23T16:35:56;99138.78;;;7.79;100.00
72961;BME280;61141;46.204;19.774;2022-11-23T16:38:58;99144.19;;;7.72;100.00
72961;BME280;61141;46.204;19.774;2022-11-23T16:42:14;99143.03;;;7.73;100.00
72961;BME280;61141;46.204;19.774;2022-11-23T16:45:17;99146.16;;;7.75;100.00
72961;BME280;61141;46.204;19.774;2022-11-23T16:51:27;99154.16;;;7.50;100.00
72961;BME280;61141;46.204;19.774;2022-11-23T16:54:30;99139.06;;;7.63;100.00
72961;BME280;61141;46.204;19.774;2022-11-23T16:57:33;99152.28;;;7.61;100.00
72961;BME280;61141;46.204;19.774;2022-11-23T17:00:38;99158.44;;;7.54;100.00
72961;BME280;61141;46.204;19.774;2022-11-23T17:03:41;99154.19;;;7.53;100.00
72961;BME280;61141;46.204;19.774;2022-11-23T17:06:46;99161.53;;;7.49;100.00
72961;BME280;61141;46.204;19.774;2022-11-23T17:09:49;99148.69;;;7.50;100.00
72961;BME280;61141;46.204;19.774;2022-11-23T17:12:53;99157.31;;;7.55;100.00
72961;BME280;61141;46.204;19.774;2022-11-23T17:15:57;99155.69;;;7.47;100.00
72961;BME280;61141;46.204;19.774;2022-11-23T17:18:59;99153.41;;;7.53;100.00
72961;BME280;61141;46.204;19.774;2022-11-23T17:22:02;99163.09;;;7.50;100.00
72961;BME280;61141;46.204;19.774;2022-11-23T17:25:06;99168.53;;;7.47;100.00
72961;BME280;61141;46.204;19.774;2022-11-23T17:28:17;99166.19;;;7.45;100.00
72961;BME280;61141;46.204;19.774;2022-11-23T17:31:24;99171.56;;;7.38;100.00
72961;BME280;61141;46.204;19.774;2022-11-23T17:34:27;99173.94;;;7.43;100.00
72961;BME280;61141;46.204;19.774;2022-11-23T17:37:30;99175.94;;;7.50;100.00
72961;BME280;61141;46.204;19.774;2022-11-23T17:40:33;99172.78;;;7.44;100.00
72961;BME280;61141;46.204;19.774;2022-11-23T17:43:37;99186.00;;;7.42;100.00
72961;BME280;61141;46.204;19.774;2022-11-23T17:46:41;99181.34;;;7.46;100.00
72961;BME280;61141;46.204;19.774;2022-11-23T17:49:45;99186.00;;;7.42;100.00
72961;BME280;61141;46.204;19.774;2022-11-23T17:52:48;99180.91;;;7.37;100.00
72961;BME280;61141;46.204;19.774;2022-11-23T17:55:51;99190.28;;;7.43;100.00
72961;BME280;61141;46.204;19.774;2022-11-23T17:58:54;99184.81;;;7.43;100.00
72961;BME280;61141;46.204;19.774;2022-11-23T18:01:57;99182.84;;;7.37;100.00
72961;BME280;61141;46.204;19.774;2022-11-23T18:05:00;99188.72;;;7.42;100.00
72961;BME280;61141;46.204;19.774;2022-11-23T18:08:03;99186.78;;;7.43;100.00